createdAt,value
2018-12-30T00:00:21.650Z,12
2018-12-30T00:01:25.055Z,12
2018-12-30T00:02:26.367Z,12
2018-12-30T00:03:28.177Z,12
2018-12-30T00:04:30.339Z,12
2018-12-30T00:05:32.174Z,12
2018-12-30T00:06:33.855Z,12
2018-12-30T00:07:35.621Z,12
2018-12-30T00:08:36.964Z,12
2018-12-30T00:09:38.236Z,12
2018-12-30T00:10:40.170Z,12.1
2018-12-30T00:11:41.499Z,12
2018-12-30T00:12:42.783Z,12.1
2018-12-30T00:13:44.810Z,12.1
2018-12-30T00:14:46.100Z,12
2018-12-30T00:15:47.416Z,12
2018-12-30T00:16:48.963Z,12
2018-12-30T00:17:50.209Z,12
2018-12-30T00:18:51.815Z,12
2018-12-30T00:19:53.231Z,12
2018-12-30T00:20:54.542Z,12
2018-12-30T00:21:55.870Z,12
2018-12-30T00:22:57.940Z,12
2018-12-30T00:23:59.274Z,12
2018-12-30T00:25:00.580Z,12
2018-12-30T00:26:03.246Z,12
2018-12-30T00:27:04.781Z,12
2018-12-30T00:28:06.058Z,12
2018-12-30T00:29:10.573Z,12
2018-12-30T00:30:13.748Z,12.1
2018-12-30T00:31:15.463Z,12.1
2018-12-30T00:32:16.804Z,12.1
2018-12-30T00:33:18.071Z,12
2018-12-30T00:34:20.628Z,12
2018-12-30T00:35:24.722Z,12
2018-12-30T00:36:26.304Z,12.1
2018-12-30T00:37:27.711Z,12.1
2018-12-30T00:38:29.232Z,12.1
2018-12-30T00:39:32.291Z,12.1
2018-12-30T00:40:35.760Z,12.1
2018-12-30T00:41:37.099Z,12.1
2018-12-30T00:42:38.394Z,12.1
2018-12-30T00:43:39.656Z,12.1
2018-12-30T00:44:40.983Z,12.1
2018-12-30T00:45:43.036Z,12
2018-12-30T00:46:44.319Z,12.1
2018-12-30T00:47:45.600Z,12.1
2018-12-30T00:48:46.876Z,12.1
2018-12-30T00:49:48.189Z,12
2018-12-30T00:50:49.501Z,12.1
2018-12-30T00:51:50.791Z,12.1
2018-12-30T00:52:57.163Z,12.1
2018-12-30T00:53:58.435Z,12
2018-12-30T00:54:59.740Z,12.1
2018-12-30T00:56:01.449Z,12.1
2018-12-30T00:57:04.415Z,12.1
2018-12-30T00:58:06.121Z,12.1
2018-12-30T00:59:07.407Z,12.1
2018-12-30T01:00:08.707Z,12.1
2018-12-30T01:01:12.334Z,12.1
2018-12-30T01:02:13.635Z,12.1
2018-12-30T01:03:14.915Z,12.1
2018-12-30T01:04:16.195Z,12.1
2018-12-30T01:05:17.516Z,12.1
2018-12-30T01:06:18.803Z,12.1
2018-12-30T01:07:20.726Z,12.1
2018-12-30T01:08:22.040Z,12.1
2018-12-30T01:09:23.684Z,12.1
2018-12-30T01:10:25.035Z,12.1
2018-12-30T01:11:26.348Z,12.1
2018-12-30T01:12:27.673Z,12.1
2018-12-30T01:13:28.993Z,12.1
2018-12-30T01:14:30.311Z,12.1
2018-12-30T01:15:31.646Z,12.1
2018-12-30T01:16:33.082Z,12.1
2018-12-30T01:17:35.013Z,12.1
2018-12-30T01:18:36.311Z,12.1
2018-12-30T01:19:37.612Z,12.1
2018-12-30T01:20:38.959Z,12.1
2018-12-30T01:21:40.315Z,12.1
2018-12-30T01:22:41.651Z,12.1
2018-12-30T01:23:42.952Z,12.1
2018-12-30T01:24:44.256Z,12.1
2018-12-30T01:25:45.631Z,12.1
2018-12-30T01:26:46.946Z,12.1
2018-12-30T01:27:49.006Z,12.1
2018-12-30T01:28:50.320Z,12.1
2018-12-30T01:29:51.647Z,12.1
2018-12-30T01:30:52.997Z,12.1
2018-12-30T01:31:54.310Z,12.1
2018-12-30T01:32:55.987Z,12.1
2018-12-30T01:33:57.320Z,12.1
2018-12-30T01:34:58.651Z,12.1
2018-12-30T01:35:59.973Z,12.1
2018-12-30T01:37:01.257Z,12.1
2018-12-30T01:38:11.864Z,12.1
2018-12-30T01:39:14.913Z,12.1
2018-12-30T01:40:16.934Z,12.1
2018-12-30T01:41:18.305Z,12.1
2018-12-30T01:42:19.646Z,12.1
2018-12-30T01:43:20.984Z,12.1
2018-12-30T01:44:23.094Z,12.1
2018-12-30T01:45:24.365Z,12.1
2018-12-30T01:46:25.743Z,12.1
2018-12-30T01:47:27.064Z,12.1
2018-12-30T01:48:28.375Z,12.1
2018-12-30T01:49:29.707Z,12.1
2018-12-30T01:50:31.555Z,12.1
2018-12-30T01:51:33.224Z,12.1
2018-12-30T01:52:36.038Z,12.1
2018-12-30T01:53:37.428Z,12.1
2018-12-30T01:54:38.729Z,12.2
2018-12-30T01:55:40.051Z,12.1
2018-12-30T01:56:41.629Z,12.1
2018-12-30T01:57:43.010Z,12.1
2018-12-30T01:58:44.308Z,12.2
2018-12-30T01:59:45.621Z,12.2
2018-12-30T02:00:46.950Z,12.1
2018-12-30T02:01:48.658Z,12.1
2018-12-30T02:02:52.678Z,12.1
2018-12-30T02:03:53.984Z,12.1
2018-12-30T02:04:57.768Z,12.1
2018-12-30T02:06:01.722Z,12.1
2018-12-30T02:07:03.074Z,12.2
2018-12-30T02:08:04.380Z,12.1
2018-12-30T02:09:05.689Z,12.1
2018-12-30T02:10:07.317Z,12.1
2018-12-30T02:11:08.596Z,12.1
2018-12-30T02:12:09.972Z,12.1
2018-12-30T02:13:11.445Z,12.1
2018-12-30T02:14:13.250Z,12.1
2018-12-30T02:15:14.541Z,12.1
2018-12-30T02:16:15.841Z,12.1
2018-12-30T02:17:17.143Z,12.2
2018-12-30T02:18:18.431Z,12.2
2018-12-30T02:19:19.741Z,12.2
2018-12-30T02:20:21.040Z,12.2
2018-12-30T02:21:22.640Z,12.2
2018-12-30T02:22:23.987Z,12.2
2018-12-30T02:23:25.285Z,12.2
2018-12-30T02:24:27.160Z,12.2
2018-12-30T02:25:28.464Z,12.2
2018-12-30T02:26:29.741Z,12.2
2018-12-30T02:27:31.067Z,12.2
2018-12-30T02:28:32.361Z,12.2
2018-12-30T02:29:33.657Z,12.2
2018-12-30T02:30:35.003Z,12.2
2018-12-30T02:31:36.299Z,12.2
2018-12-30T02:32:37.648Z,12.2
2018-12-30T02:33:38.965Z,12.2
2018-12-30T02:34:40.428Z,12.2
2018-12-30T02:35:42.228Z,12.2
2018-12-30T02:36:43.520Z,12.2
2018-12-30T02:37:44.886Z,12.2
2018-12-30T02:38:46.181Z,12.2
2018-12-30T02:39:47.472Z,12.2
2018-12-30T02:40:48.773Z,12.2
2018-12-30T02:41:50.071Z,12.2
2018-12-30T02:42:51.424Z,12.2
2018-12-30T02:43:52.717Z,12.2
2018-12-30T02:44:54.021Z,12.2
2018-12-30T02:45:55.698Z,12.2
2018-12-30T02:46:57.312Z,12.2
2018-12-30T02:47:58.652Z,12.1
2018-12-30T02:48:59.949Z,12.2
2018-12-30T02:50:01.243Z,12.2
2018-12-30T02:51:02.679Z,12.2
2018-12-30T02:52:04.028Z,12.2
2018-12-30T02:53:05.344Z,12.2
2018-12-30T02:54:06.660Z,12.2
2018-12-30T02:55:07.964Z,12.2
2018-12-30T02:56:09.252Z,12.2
2018-12-30T02:57:10.860Z,12.2
2018-12-30T02:58:12.223Z,12.2
2018-12-30T02:59:13.508Z,12.2
2018-12-30T03:00:14.787Z,12.2
2018-12-30T03:01:16.072Z,12.2
2018-12-30T03:02:17.380Z,12.2
2018-12-30T03:03:18.772Z,12.2
2018-12-30T03:04:20.422Z,12.2
2018-12-30T03:05:21.754Z,12.2
2018-12-30T03:06:23.052Z,12.2
2018-12-30T03:07:24.336Z,12.2
2018-12-30T03:08:25.886Z,12.2
2018-12-30T03:09:27.586Z,12.2
2018-12-30T03:10:28.885Z,12.2
2018-12-30T03:11:30.216Z,12.2
2018-12-30T03:12:31.513Z,12.2
2018-12-30T03:13:32.850Z,12.3
2018-12-30T03:14:34.256Z,12.2
2018-12-30T03:15:35.561Z,12.2
2018-12-30T03:16:36.870Z,12.2
2018-12-30T03:17:38.150Z,12.2
2018-12-30T03:18:39.480Z,12.2
2018-12-30T03:19:40.748Z,12.2
2018-12-30T03:20:42.801Z,12.2
2018-12-30T03:21:44.093Z,12.2
2018-12-30T03:22:45.373Z,12.2
2018-12-30T03:23:46.676Z,12.2
2018-12-30T03:24:47.968Z,12.2
2018-12-30T03:25:49.238Z,12.2
2018-12-30T03:26:54.728Z,12.2
2018-12-30T03:27:55.997Z,12.2
2018-12-30T03:28:57.317Z,12.2
2018-12-30T03:29:58.624Z,12.2
2018-12-30T03:30:59.901Z,12.2
2018-12-30T03:32:01.196Z,12.2
2018-12-30T03:33:02.601Z,12.2
2018-12-30T03:34:03.913Z,12.2
2018-12-30T03:35:05.204Z,12.2
2018-12-30T03:36:06.477Z,12.2
2018-12-30T03:37:07.752Z,12.2
2018-12-30T03:38:09.032Z,12.2
2018-12-30T03:39:10.455Z,12.2
2018-12-30T03:40:11.777Z,12.2
2018-12-30T03:41:13.056Z,12.2
2018-12-30T03:42:14.348Z,12.2
2018-12-30T03:43:15.644Z,12.2
2018-12-30T03:44:16.969Z,12.2
2018-12-30T03:45:18.233Z,12.2
2018-12-30T03:46:19.496Z,12.2
2018-12-30T03:47:20.840Z,12.2
2018-12-30T03:48:22.105Z,12.2
2018-12-30T03:49:23.397Z,12.2
2018-12-30T03:50:24.676Z,12.3
2018-12-30T03:51:25.935Z,12.2
2018-12-30T03:52:27.213Z,12.2
2018-12-30T03:53:28.499Z,12.2
2018-12-30T03:54:29.833Z,12.2
2018-12-30T03:55:31.131Z,12.2
2018-12-30T03:56:32.449Z,12.2
2018-12-30T03:57:33.728Z,12.2
2018-12-30T03:58:35.017Z,12.2
2018-12-30T03:59:36.731Z,12.2
2018-12-30T04:00:38.272Z,12.2
2018-12-30T04:01:39.577Z,12.2
2018-12-30T04:02:41.801Z,12.2
2018-12-30T04:03:43.537Z,12.2
2018-12-30T04:04:44.816Z,12.2
2018-12-30T04:05:46.087Z,12.2
2018-12-30T04:06:47.370Z,12.2
2018-12-30T04:07:48.640Z,12.2
2018-12-30T04:08:49.908Z,12.2
2018-12-30T04:09:51.204Z,12.2
2018-12-30T04:10:52.488Z,12.2
2018-12-30T04:11:53.789Z,12.2
2018-12-30T04:12:55.077Z,12.2
2018-12-30T04:13:56.356Z,12.2
2018-12-30T04:14:57.957Z,12.2
2018-12-30T04:15:59.233Z,12.2
2018-12-30T04:17:00.523Z,12.2
2018-12-30T04:18:02.386Z,12.2
2018-12-30T04:19:05.874Z,12.2
2018-12-30T04:20:07.190Z,12.2
2018-12-30T04:21:08.511Z,12.2
2018-12-30T04:22:16.744Z,12.2
2018-12-30T04:23:18.393Z,12.2
2018-12-30T04:24:19.677Z,12.1
2018-12-30T04:25:21.007Z,12.2
2018-12-30T04:26:22.393Z,12.2
2018-12-30T04:27:23.723Z,12.2
2018-12-30T04:28:25.023Z,12.2
2018-12-30T04:29:26.324Z,12.2
2018-12-30T04:30:27.653Z,12.2
2018-12-30T04:31:28.960Z,12.2
2018-12-30T04:32:30.252Z,12.2
2018-12-30T04:33:31.557Z,12.2
2018-12-30T04:34:32.820Z,12.2
2018-12-30T04:35:34.135Z,12.2
2018-12-30T04:36:35.412Z,12.2
2018-12-30T04:37:36.685Z,12.2
2018-12-30T04:38:37.966Z,12.2
2018-12-30T04:39:39.241Z,12.2
2018-12-30T04:40:40.576Z,12.2
2018-12-30T04:41:41.840Z,12.1
2018-12-30T04:42:43.122Z,12.2
2018-12-30T04:43:44.376Z,12.2
2018-12-30T04:44:45.663Z,12.1
2018-12-30T04:45:46.989Z,12.1
2018-12-30T04:46:48.674Z,12.1
2018-12-30T04:47:51.045Z,12.1
2018-12-30T04:48:52.315Z,12.2
2018-12-30T04:49:53.568Z,12.1
2018-12-30T04:50:54.865Z,12.1
2018-12-30T04:51:56.139Z,12.1
2018-12-30T04:52:57.413Z,12.2
2018-12-30T04:53:58.693Z,12.1
2018-12-30T04:55:00.314Z,12.1
2018-12-30T04:56:01.651Z,12.1
2018-12-30T04:57:02.944Z,12.1
2018-12-30T04:58:04.234Z,12.1
2018-12-30T04:59:05.513Z,12.1
2018-12-30T05:00:06.805Z,12.1
2018-12-30T05:01:08.145Z,12.1
2018-12-30T05:02:09.440Z,12.1
2018-12-30T05:03:10.752Z,12.1
2018-12-30T05:04:12.028Z,12.1
2018-12-30T05:05:13.313Z,12.1
2018-12-30T05:06:14.637Z,12.1
2018-12-30T05:07:15.926Z,12.1
2018-12-30T05:08:17.208Z,12.1
2018-12-30T05:09:18.496Z,12.1
2018-12-30T05:10:19.776Z,12.1
2018-12-30T05:11:21.091Z,12.1
2018-12-30T05:12:22.376Z,12.2
2018-12-30T05:13:23.654Z,12.1
2018-12-30T05:14:24.953Z,12.1
2018-12-30T05:15:26.245Z,12.1
2018-12-30T05:16:27.570Z,12.1
2018-12-30T05:17:28.862Z,12.1
2018-12-30T05:18:30.235Z,12.1
2018-12-30T05:19:31.514Z,12.1
2018-12-30T05:20:32.789Z,12.1
2018-12-30T05:21:34.112Z,12.1
2018-12-30T05:22:35.400Z,12.1
2018-12-30T05:23:36.704Z,12.1
2018-12-30T05:24:37.997Z,12.2
2018-12-30T05:25:39.270Z,12.2
2018-12-30T05:26:40.565Z,12.2
2018-12-30T05:27:41.962Z,12.1
2018-12-30T05:28:43.263Z,12.1
2018-12-30T05:29:44.540Z,12.1
2018-12-30T05:30:45.806Z,12.1
2018-12-30T05:31:47.125Z,12.2
2018-12-30T05:32:48.406Z,12.2
2018-12-30T05:33:51.088Z,12.1
2018-12-30T05:34:52.436Z,12.1
2018-12-30T05:35:53.750Z,12.1
2018-12-30T05:36:55.064Z,12.1
2018-12-30T05:37:56.324Z,12.1
2018-12-30T05:38:57.602Z,12.1
2018-12-30T05:39:58.857Z,12.1
2018-12-30T05:41:00.132Z,12.1
2018-12-30T05:42:01.437Z,12.1
2018-12-30T05:43:02.785Z,12.1
2018-12-30T05:44:04.049Z,12.1
2018-12-30T05:45:05.325Z,12.1
2018-12-30T05:46:06.608Z,12.1
2018-12-30T05:47:07.930Z,12.1
2018-12-30T05:48:09.198Z,12.1
2018-12-30T05:49:10.480Z,12.1
2018-12-30T05:50:11.737Z,12.1
2018-12-30T05:51:12.996Z,12.1
2018-12-30T05:52:14.299Z,12.1
2018-12-30T05:53:15.580Z,12.1
2018-12-30T05:54:16.841Z,12.1
2018-12-30T05:55:18.115Z,12.1
2018-12-30T05:56:19.394Z,12.1
2018-12-30T05:57:20.708Z,12.1
2018-12-30T05:58:22.210Z,12.1
2018-12-30T05:59:23.489Z,12.1
2018-12-30T06:00:24.779Z,12.1
2018-12-30T06:01:26.046Z,12.1
2018-12-30T06:02:27.376Z,12.1
2018-12-30T06:03:28.660Z,12.1
2018-12-30T06:04:29.918Z,12.1
2018-12-30T06:05:31.221Z,12.1
2018-12-30T06:06:32.509Z,12.1
2018-12-30T06:07:33.845Z,12.1
2018-12-30T06:08:35.121Z,12.1
2018-12-30T06:09:36.389Z,12.1
2018-12-30T06:10:37.665Z,12.1
2018-12-30T06:11:38.936Z,12.1
2018-12-30T06:12:40.228Z,12.1
2018-12-30T06:13:41.497Z,12.1
2018-12-30T06:14:42.782Z,12.1
2018-12-30T06:15:44.097Z,12.1
2018-12-30T06:16:45.376Z,12.1
2018-12-30T06:17:46.676Z,12.1
2018-12-30T06:18:47.957Z,12
2018-12-30T06:19:49.229Z,12
2018-12-30T06:20:50.508Z,12.1
2018-12-30T06:21:51.799Z,12.1
2018-12-30T06:22:53.121Z,12.1
2018-12-30T06:23:54.396Z,12.1
2018-12-30T06:24:55.673Z,12.1
2018-12-30T06:25:56.963Z,12
2018-12-30T06:26:58.264Z,12.1
2018-12-30T06:27:59.585Z,12.1
2018-12-30T06:29:00.913Z,12.1
2018-12-30T06:30:02.333Z,12.1
2018-12-30T06:31:03.625Z,12.1
2018-12-30T06:32:04.896Z,12
2018-12-30T06:33:06.210Z,12.1
2018-12-30T06:34:09.428Z,12.1
2018-12-30T06:35:10.703Z,12.1
2018-12-30T06:36:12.275Z,12.1
2018-12-30T06:37:13.550Z,12
2018-12-30T06:38:14.849Z,12.1
2018-12-30T06:39:16.129Z,12.1
2018-12-30T06:40:17.420Z,12.1
2018-12-30T06:41:18.685Z,12.1
2018-12-30T06:42:20.226Z,12
2018-12-30T06:43:21.516Z,12.1
2018-12-30T06:44:22.781Z,12.1
2018-12-30T06:45:24.037Z,12.1
2018-12-30T06:46:25.377Z,12.1
2018-12-30T06:47:26.664Z,12.1
2018-12-30T06:48:28.276Z,12.1
2018-12-30T06:49:29.543Z,12.1
2018-12-30T06:50:35.801Z,12.1
2018-12-30T06:51:37.083Z,12
2018-12-30T06:52:38.369Z,12
2018-12-30T06:53:39.702Z,12
2018-12-30T06:54:40.994Z,12
2018-12-30T06:55:42.404Z,12
2018-12-30T06:56:43.672Z,12
2018-12-30T06:57:44.973Z,12
2018-12-30T06:58:48.674Z,12
2018-12-30T06:59:49.949Z,12
2018-12-30T07:00:51.216Z,12
2018-12-30T07:01:52.501Z,12
2018-12-30T07:02:53.772Z,12.1
2018-12-30T07:03:55.094Z,12.1
2018-12-30T07:04:56.353Z,12.1
2018-12-30T07:05:57.625Z,12.1
2018-12-30T07:06:58.914Z,12
2018-12-30T07:08:00.186Z,12
2018-12-30T07:09:01.526Z,12
2018-12-30T07:10:02.836Z,12.1
2018-12-30T07:11:04.241Z,12
2018-12-30T07:12:05.628Z,12
2018-12-30T07:13:07.580Z,12.1
2018-12-30T07:14:08.918Z,12.1
2018-12-30T07:15:10.185Z,12
2018-12-30T07:16:11.464Z,12
2018-12-30T07:17:12.748Z,12
2018-12-30T07:18:14.013Z,12
2018-12-30T07:19:15.678Z,12
2018-12-30T07:20:16.948Z,12.1
2018-12-30T07:21:18.232Z,12.1
2018-12-30T07:22:19.497Z,12
2018-12-30T07:23:23.200Z,12
2018-12-30T07:24:24.620Z,12
2018-12-30T07:25:25.885Z,12
2018-12-30T07:26:27.143Z,12
2018-12-30T07:27:28.433Z,12.1
2018-12-30T07:28:29.710Z,12.1
2018-12-30T07:29:31.085Z,12.1
2018-12-30T07:30:32.788Z,12.1
2018-12-30T07:31:34.437Z,12.1
2018-12-30T07:32:35.720Z,12
2018-12-30T07:33:37.007Z,12
2018-12-30T07:34:38.352Z,12
2018-12-30T07:35:39.627Z,12.1
2018-12-30T07:36:40.910Z,12.1
2018-12-30T07:37:42.200Z,12
2018-12-30T07:38:43.466Z,12.1
2018-12-30T07:39:44.763Z,12
2018-12-30T07:40:46.041Z,12
2018-12-30T07:41:47.320Z,12
2018-12-30T07:42:48.600Z,12
2018-12-30T07:43:49.879Z,12
2018-12-30T07:44:51.231Z,12.1
2018-12-30T07:45:52.621Z,12.1
2018-12-30T07:46:54.939Z,12
2018-12-30T07:47:56.223Z,12
2018-12-30T07:48:57.500Z,12
2018-12-30T07:49:58.991Z,12
2018-12-30T07:51:00.286Z,12
2018-12-30T07:52:01.580Z,12.1
2018-12-30T07:53:02.904Z,12.1
2018-12-30T07:54:04.202Z,12.1
2018-12-30T07:55:05.535Z,12.1
2018-12-30T07:56:06.805Z,12
2018-12-30T07:57:08.085Z,12
2018-12-30T07:58:09.370Z,12.1
2018-12-30T07:59:11.121Z,12.1
2018-12-30T08:00:12.437Z,12
2018-12-30T08:01:14.237Z,12
2018-12-30T08:02:15.831Z,12.1
2018-12-30T08:03:17.115Z,12.1
2018-12-30T08:04:18.687Z,12.1
2018-12-30T08:05:20.034Z,12.1
2018-12-30T08:06:21.585Z,12.1
2018-12-30T08:07:22.938Z,12.1
2018-12-30T08:08:24.249Z,12.1
2018-12-30T08:09:25.822Z,12.1
2018-12-30T08:10:27.169Z,12.1
2018-12-30T08:11:28.428Z,12.1
2018-12-30T08:12:29.742Z,12.1
2018-12-30T08:13:31.242Z,12.1
2018-12-30T08:14:32.530Z,12.1
2018-12-30T08:15:33.828Z,12.1
2018-12-30T08:16:37.352Z,12.1
2018-12-30T08:17:38.651Z,12.1
2018-12-30T08:18:39.922Z,12.1
2018-12-30T08:19:41.185Z,12.1
2018-12-30T08:20:42.749Z,12.1
2018-12-30T08:21:44.033Z,12.1
2018-12-30T08:22:45.307Z,12.1
2018-12-30T08:23:46.585Z,12.1
2018-12-30T08:24:47.890Z,12.1
2018-12-30T08:25:49.208Z,12.1
2018-12-30T08:26:50.471Z,12.1
2018-12-30T08:27:51.762Z,12.1
2018-12-30T08:28:53.024Z,12.1
2018-12-30T08:29:54.308Z,12.1
2018-12-30T08:30:55.621Z,12.1
2018-12-30T08:31:58.226Z,12.1
2018-12-30T08:32:59.501Z,12.1
2018-12-30T08:34:00.792Z,12.1
2018-12-30T08:35:02.316Z,12.1
2018-12-30T08:36:03.627Z,12.1
2018-12-30T08:37:04.902Z,12.1
2018-12-30T08:38:06.213Z,12.1
2018-12-30T08:39:07.667Z,12.1
2018-12-30T08:40:09.246Z,12.1
2018-12-30T08:41:10.529Z,12.1
2018-12-30T08:42:11.807Z,12.1
2018-12-30T08:43:13.085Z,12.1
2018-12-30T08:44:14.380Z,12.1
2018-12-30T08:45:15.892Z,12.1
2018-12-30T08:46:17.955Z,12.1
2018-12-30T08:47:19.238Z,12.1
2018-12-30T08:48:20.530Z,12.1
2018-12-30T08:49:21.837Z,12.1
2018-12-30T08:50:23.107Z,12.1
2018-12-30T08:51:24.435Z,12.1
2018-12-30T08:52:25.717Z,12.1
2018-12-30T08:53:29.410Z,12.1
2018-12-30T08:54:32.889Z,12.1
2018-12-30T08:55:34.186Z,12.2
2018-12-30T08:56:35.850Z,12.2
2018-12-30T08:57:37.159Z,12.2
2018-12-30T08:58:38.468Z,12.2
2018-12-30T08:59:39.807Z,12.1
2018-12-30T09:00:41.269Z,12.1
2018-12-30T09:01:42.591Z,12.2
2018-12-30T09:02:44.964Z,12.2
2018-12-30T09:03:46.308Z,12.2
2018-12-30T09:04:47.593Z,12.2
2018-12-30T09:05:50.233Z,12.2
2018-12-30T09:06:52.117Z,12.2
2018-12-30T09:07:53.528Z,12.2
2018-12-30T09:08:54.821Z,12.2
2018-12-30T09:09:56.295Z,12.2
2018-12-30T09:10:57.583Z,12.2
2018-12-30T09:11:58.888Z,12.2
2018-12-30T09:13:00.139Z,12.2
2018-12-30T09:14:01.408Z,12.2
2018-12-30T09:15:02.728Z,12.2
2018-12-30T09:16:04.027Z,12.2
2018-12-30T09:17:05.741Z,12.2
2018-12-30T09:18:10.020Z,12.2
2018-12-30T09:19:11.328Z,12.2
2018-12-30T09:20:12.856Z,12.2
2018-12-30T09:21:14.136Z,12.2
2018-12-30T09:22:15.467Z,12.2
2018-12-30T09:23:16.740Z,12.3
2018-12-30T09:24:20.010Z,12.2
2018-12-30T09:25:21.284Z,12.2
2018-12-30T09:26:22.564Z,12.3
2018-12-30T09:27:24.269Z,12.2
2018-12-30T09:28:25.630Z,12.2
2018-12-30T09:29:28.205Z,12.2
2018-12-30T09:30:30.661Z,12.2
2018-12-30T09:31:32.122Z,12.2
2018-12-30T09:32:33.432Z,12.2
2018-12-30T09:33:34.711Z,12.2
2018-12-30T09:34:36.253Z,12.2
2018-12-30T09:35:37.561Z,12.2
2018-12-30T09:36:38.872Z,12.2
2018-12-30T09:37:40.365Z,12.2
2018-12-30T09:38:41.726Z,12.3
2018-12-30T09:39:43.440Z,12.3
2018-12-30T09:40:44.733Z,12.3
2018-12-30T09:41:46.004Z,12.3
2018-12-30T09:42:47.636Z,12.3
2018-12-30T09:43:48.926Z,12.3
2018-12-30T09:44:50.346Z,12.3
2018-12-30T09:45:52.749Z,12.3
2018-12-30T09:46:57.014Z,12.3
2018-12-30T09:47:58.363Z,12.3
2018-12-30T09:48:59.660Z,12.3
2018-12-30T09:50:02.733Z,12.3
2018-12-30T09:51:04.045Z,12.3
2018-12-30T09:52:05.313Z,12.3
2018-12-30T09:53:06.761Z,12.3
2018-12-30T09:54:10.992Z,12.3
2018-12-30T09:55:12.317Z,12.3
2018-12-30T09:56:13.610Z,12.3
2018-12-30T09:57:14.866Z,12.3
2018-12-30T09:58:16.186Z,12.3
2018-12-30T09:59:17.479Z,12.3
2018-12-30T10:00:18.806Z,12.3
2018-12-30T10:01:20.101Z,12.4
2018-12-30T10:02:24.817Z,12.4
2018-12-30T10:03:30.114Z,12.4
2018-12-30T10:04:31.437Z,12.4
2018-12-30T10:05:32.765Z,12.4
2018-12-30T10:06:34.457Z,12.4
2018-12-30T10:07:35.775Z,12.4
2018-12-30T10:08:37.137Z,12.4
2018-12-30T10:09:38.429Z,12.4
2018-12-30T10:10:39.718Z,12.4
2018-12-30T10:11:41.658Z,12.4
2018-12-30T10:12:42.959Z,12.4
2018-12-30T10:13:44.308Z,12.4
2018-12-30T10:14:45.631Z,12.5
2018-12-30T10:15:46.967Z,12.5
2018-12-30T10:16:48.386Z,12.5
2018-12-30T10:17:50.715Z,12.4
2018-12-30T10:18:52.080Z,12.4
2018-12-30T10:19:53.842Z,12.5
2018-12-30T10:20:55.301Z,12.5
2018-12-30T10:21:56.589Z,12.5
2018-12-30T10:22:58.828Z,12.5
2018-12-30T10:24:00.512Z,12.4
2018-12-30T10:25:02.326Z,12.5
2018-12-30T10:26:03.617Z,12.5
2018-12-30T10:27:04.989Z,12.5
2018-12-30T10:28:06.301Z,12.5
2018-12-30T10:29:07.642Z,12.5
2018-12-30T10:30:08.942Z,12.5
2018-12-30T10:31:10.215Z,12.6
2018-12-30T10:32:12.924Z,12.6
2018-12-30T10:33:14.217Z,12.6
2018-12-30T10:34:15.707Z,12.6
2018-12-30T10:35:19.264Z,12.6
2018-12-30T10:36:25.073Z,12.6
2018-12-30T10:37:26.352Z,12.6
2018-12-30T10:38:32.161Z,12.6
2018-12-30T10:39:33.621Z,12.6
2018-12-30T10:40:34.961Z,12.6
2018-12-30T10:41:36.237Z,12.6
2018-12-30T10:42:39.469Z,12.6
2018-12-30T10:43:43.649Z,12.6
2018-12-30T10:44:45.530Z,12.6
2018-12-30T10:45:46.819Z,12.6
2018-12-30T10:46:51.541Z,12.6
2018-12-30T10:47:53.267Z,12.6
2018-12-30T10:48:54.590Z,12.6
2018-12-30T10:49:55.909Z,12.6
2018-12-30T10:50:57.208Z,12.6
2018-12-30T10:51:58.500Z,12.6
2018-12-30T10:52:59.780Z,12.6
2018-12-30T10:54:01.082Z,12.6
2018-12-30T10:55:02.438Z,12.6
2018-12-30T10:56:03.709Z,12.6
2018-12-30T10:57:05.006Z,12.6
2018-12-30T10:58:06.290Z,12.6
2018-12-30T10:59:07.635Z,12.6
2018-12-30T11:00:08.946Z,12.6
2018-12-30T11:01:11.076Z,12.6
2018-12-30T11:02:12.365Z,12.6
2018-12-30T11:03:13.641Z,12.5
2018-12-30T11:04:14.952Z,12.6
2018-12-30T11:05:16.312Z,12.6
2018-12-30T11:06:17.615Z,12.7
2018-12-30T11:07:18.934Z,12.7
2018-12-30T11:08:20.238Z,12.7
2018-12-30T11:09:27.561Z,12.7
2018-12-30T11:10:28.980Z,12.6
2018-12-30T11:11:33.291Z,12.7
2018-12-30T11:12:37.587Z,12.7
2018-12-30T11:13:38.905Z,12.6
2018-12-30T11:14:40.241Z,12.7
2018-12-30T11:15:41.584Z,12.7
2018-12-30T11:16:42.875Z,12.7
2018-12-30T11:17:44.188Z,12.7
2018-12-30T11:18:45.467Z,12.7
2018-12-30T11:19:46.992Z,12.7
2018-12-30T11:20:48.344Z,12.7
2018-12-30T11:21:50.182Z,12.7
2018-12-30T11:22:52.650Z,12.7
2018-12-30T11:23:54.315Z,12.7
2018-12-30T11:24:55.669Z,12.8
2018-12-30T11:25:57.344Z,12.8
2018-12-30T11:27:00.155Z,12.8
2018-12-30T11:28:01.443Z,12.8
2018-12-30T11:29:02.761Z,12.8
2018-12-30T11:30:04.077Z,12.7
2018-12-30T11:31:06.911Z,12.8
2018-12-30T11:32:08.248Z,12.8
2018-12-30T11:33:09.536Z,12.8
2018-12-30T11:34:11.638Z,12.8
2018-12-30T11:35:13.368Z,12.8
2018-12-30T11:36:15.012Z,12.8
2018-12-30T11:37:18.362Z,12.8
2018-12-30T11:38:19.645Z,12.8
2018-12-30T11:39:20.963Z,12.8
2018-12-30T11:40:22.295Z,12.8
2018-12-30T11:41:23.669Z,12.9
2018-12-30T11:42:25.012Z,12.9
2018-12-30T11:43:26.656Z,12.9
2018-12-30T11:44:29.289Z,12.9
2018-12-30T11:45:33.350Z,12.9
2018-12-30T11:46:34.671Z,12.9
2018-12-30T11:47:35.942Z,12.9
2018-12-30T11:48:37.220Z,12.9
2018-12-30T11:49:38.533Z,12.8
2018-12-30T11:50:39.845Z,12.9
2018-12-30T11:51:41.185Z,12.9
2018-12-30T11:52:42.907Z,12.9
2018-12-30T11:53:44.276Z,12.9
2018-12-30T11:54:45.659Z,13
2018-12-30T11:55:46.963Z,12.9
2018-12-30T11:56:48.652Z,12.9
2018-12-30T11:57:49.940Z,13
2018-12-30T11:58:51.209Z,12.9
2018-12-30T11:59:52.504Z,12.9
2018-12-30T12:00:55.678Z,13
2018-12-30T12:01:57.384Z,13
2018-12-30T12:03:04.332Z,13
2018-12-30T12:04:07.547Z,13
2018-12-30T12:05:09.073Z,13
2018-12-30T12:06:10.381Z,13
2018-12-30T12:07:19.343Z,13
2018-12-30T12:08:20.990Z,13
2018-12-30T12:09:22.298Z,13
2018-12-30T12:10:26.804Z,13
2018-12-30T12:11:28.651Z,13
2018-12-30T12:12:30.890Z,13
2018-12-30T12:13:32.203Z,13
2018-12-30T12:14:33.536Z,13
2018-12-30T12:15:34.954Z,13
2018-12-30T12:16:36.226Z,13.1
2018-12-30T12:17:38.989Z,13
2018-12-30T12:18:40.304Z,13.1
2018-12-30T12:19:43.167Z,13
2018-12-30T12:20:44.485Z,13
2018-12-30T12:21:45.773Z,13
2018-12-30T12:22:47.452Z,13
2018-12-30T12:23:52.320Z,13
2018-12-30T12:24:53.593Z,13
2018-12-30T12:25:54.901Z,13
2018-12-30T12:26:56.205Z,13
2018-12-30T12:27:57.545Z,13.1
2018-12-30T12:28:58.903Z,13
2018-12-30T12:30:00.220Z,13
2018-12-30T12:31:02.501Z,13
2018-12-30T12:32:04.040Z,13
2018-12-30T12:33:05.364Z,13
2018-12-30T12:34:06.664Z,12.9
2018-12-30T12:35:07.967Z,13
2018-12-30T12:36:09.243Z,13
2018-12-30T12:37:10.681Z,13
2018-12-30T12:38:12.693Z,13
2018-12-30T12:39:17.077Z,13
2018-12-30T12:40:18.432Z,13
2018-12-30T12:41:19.747Z,13
2018-12-30T12:42:21.104Z,13
2018-12-30T12:43:22.453Z,13
2018-12-30T12:44:23.876Z,13
2018-12-30T12:45:25.170Z,13
2018-12-30T12:46:26.476Z,13
2018-12-30T12:47:27.799Z,13
2018-12-30T12:48:29.454Z,13
2018-12-30T12:49:30.984Z,13.1
2018-12-30T12:50:32.294Z,13.1
2018-12-30T12:51:33.593Z,13.1
2018-12-30T12:52:36.259Z,13.1
2018-12-30T12:53:46.471Z,13.1
2018-12-30T12:54:47.746Z,13.1
2018-12-30T12:55:49.058Z,13
2018-12-30T12:56:50.516Z,13
2018-12-30T12:57:52.294Z,13.1
2018-12-30T12:58:53.878Z,13.1
2018-12-30T12:59:55.183Z,13.1
2018-12-30T13:00:56.481Z,13
2018-12-30T13:01:57.750Z,13
2018-12-30T13:02:59.652Z,13
2018-12-30T13:04:01.214Z,13
2018-12-30T13:05:02.487Z,13.1
2018-12-30T13:06:03.725Z,13.1
2018-12-30T13:07:05.051Z,13.1
2018-12-30T13:08:07.146Z,13.1
2018-12-30T13:09:08.522Z,13.1
2018-12-30T13:10:09.772Z,13.1
2018-12-30T13:11:11.396Z,13
2018-12-30T13:12:12.969Z,13.1
2018-12-30T13:13:14.248Z,13.1
2018-12-30T13:14:18.368Z,13.1
2018-12-30T13:15:19.641Z,13.1
2018-12-30T13:16:20.915Z,13.1
2018-12-30T13:17:22.180Z,13.1
2018-12-30T13:18:26.318Z,13.1
2018-12-30T13:19:36.647Z,13.1
2018-12-30T13:20:39.052Z,13.1
2018-12-30T13:21:40.588Z,13.1
2018-12-30T13:22:49.234Z,13.1
2018-12-30T13:23:53.542Z,13.1
2018-12-30T13:24:57.227Z,13.1
2018-12-30T13:25:58.519Z,13.1
2018-12-30T13:26:59.776Z,13.1
2018-12-30T13:28:01.498Z,13.1
2018-12-30T13:29:05.164Z,13.1
2018-12-30T13:30:06.505Z,13.1
2018-12-30T13:31:08.008Z,13.1
2018-12-30T13:32:09.273Z,13.1
2018-12-30T13:33:12.528Z,13.1
2018-12-30T13:34:14.226Z,13.1
2018-12-30T13:35:15.662Z,13.1
2018-12-30T13:36:17.301Z,13.1
2018-12-30T13:37:20.775Z,13.1
2018-12-30T13:38:28.207Z,13.1
2018-12-30T13:39:30.412Z,13.1
2018-12-30T13:40:36.604Z,13.1
2018-12-30T13:41:38.010Z,13.1
2018-12-30T13:42:44.308Z,13.1
2018-12-30T13:43:45.616Z,13.1
2018-12-30T13:44:47.393Z,13.1
2018-12-30T13:45:48.716Z,13.1
2018-12-30T13:46:50.794Z,13.1
2018-12-30T13:47:53.063Z,13.1
2018-12-30T13:48:54.567Z,13.1
2018-12-30T13:49:57.167Z,13.1